DLH35X EDDF-EGLL
Flight info
| Callsign | DLH35X |
|---|---|
| Flight time | 1h 2m |
| Altitude | 36000 |
| Route | OBOKA3D/07C OBOKA Z29 TORNU DCT ABNED L980 LOGAN |
| Aircraft | A346/H-SDE2E3FGHIJ3J4J5M1RWXY/LB1D1 |
Departure
| Time | 2026-04-14 13:59 |
|---|---|
| Airport | Frankfurt Main Airport (EDDF) |
Arrival
| Time | 2026-04-14 15:01 |
|---|---|
| Airport | London Heathrow Airport (EGLL) |
| Time | Latitude | Longitude | Altitude | Speed | Heading |
|---|---|---|---|---|---|
| 2026-04-14 13:17 | 50.04799 | 8.56589 | 364 ft | 0 kts | 340° |
| 2026-04-14 13:45 | 50.04792 | 8.56594 | 364 ft | 4 kts | 341° |
| 2026-04-14 13:45 | 50.04767 | 8.56607 | 370 ft | 4 kts | 338° |
| 2026-04-14 13:45 | 50.04746 | 8.56614 | 369 ft | 4 kts | 9° |
| 2026-04-14 13:45 | 50.04729 | 8.56602 | 368 ft | 4 kts | 45° |
| 2026-04-14 13:46 | 50.04714 | 8.56571 | 366 ft | 4 kts | 50° |
| 2026-04-14 13:46 | 50.04696 | 8.56543 | 371 ft | 4 kts | 36° |
| 2026-04-14 13:46 | 50.04673 | 8.56523 | 368 ft | 4 kts | 24° |
| 2026-04-14 13:46 | 50.04648 | 8.56507 | 372 ft | 4 kts | 19° |
| 2026-04-14 13:47 | 50.04625 | 8.56494 | 369 ft | 2 kts | 24° |
| 2026-04-14 13:47 | 50.04636 | 8.56502 | 368 ft | 4 kts | 21° |
| 2026-04-14 13:47 | 50.04657 | 8.56506 | 372 ft | 4 kts | 352° |
| 2026-04-14 13:47 | 50.04669 | 8.56492 | 372 ft | 4 kts | 310° |
| 2026-04-14 13:48 | 50.04677 | 8.56466 | 371 ft | 2 kts | 290° |
| 2026-04-14 13:48 | 50.04680 | 8.56436 | 368 ft | 4 kts | 261° |
| 2026-04-14 13:48 | 50.04669 | 8.56408 | 371 ft | 4 kts | 230° |
| 2026-04-14 13:48 | 50.04666 | 8.56410 | 371 ft | 4 kts | 201° |
| 2026-04-14 13:49 | 50.04647 | 8.56411 | 368 ft | 4 kts | 168° |
| 2026-04-14 13:49 | 50.04645 | 8.56413 | 367 ft | 4 kts | 178° |
| 2026-04-14 13:49 | 50.04661 | 8.56417 | 369 ft | 4 kts | 219° |
| 2026-04-14 13:49 | 50.04664 | 8.56421 | 369 ft | 0 kts | 249° |
| 2026-04-14 13:52 | 50.04662 | 8.56415 | 369 ft | 2 kts | 249° |
| 2026-04-14 13:52 | 50.04653 | 8.56376 | 371 ft | 7 kts | 249° |
| 2026-04-14 13:52 | 50.04628 | 8.56272 | 367 ft | 14 kts | 249° |
| 2026-04-14 13:52 | 50.04587 | 8.56104 | 368 ft | 17 kts | 249° |
| 2026-04-14 13:53 | 50.04540 | 8.55965 | 368 ft | 15 kts | 213° |
| 2026-04-14 13:53 | 50.04433 | 8.55915 | 370 ft | 17 kts | 190° |
| 2026-04-14 13:53 | 50.04334 | 8.55935 | 368 ft | 10 kts | 159° |
| 2026-04-14 13:53 | 50.04268 | 8.55966 | 364 ft | 9 kts | 192° |
| 2026-04-14 13:54 | 50.04208 | 8.55912 | 365 ft | 11 kts | 179° |
| 2026-04-14 13:54 | 50.04122 | 8.55954 | 365 ft | 12 kts | 159° |
| 2026-04-14 13:54 | 50.04053 | 8.55945 | 367 ft | 12 kts | 227° |
| 2026-04-14 13:54 | 50.04013 | 8.55802 | 363 ft | 16 kts | 249° |
| 2026-04-14 13:55 | 50.03969 | 8.55618 | 363 ft | 20 kts | 249° |
| 2026-04-14 13:55 | 50.03918 | 8.55403 | 360 ft | 20 kts | 249° |
| 2026-04-14 13:55 | 50.03873 | 8.55212 | 364 ft | 20 kts | 250° |
| 2026-04-14 13:55 | 50.03820 | 8.54994 | 363 ft | 23 kts | 249° |
| 2026-04-14 13:56 | 50.03761 | 8.54748 | 361 ft | 25 kts | 250° |
| 2026-04-14 13:56 | 50.03706 | 8.54516 | 357 ft | 19 kts | 249° |
| 2026-04-14 13:56 | 50.03672 | 8.54375 | 358 ft | 9 kts | 249° |
| 2026-04-14 13:56 | 50.03638 | 8.54303 | 357 ft | 9 kts | 186° |
| 2026-04-14 13:57 | 50.03605 | 8.54313 | 358 ft | 0 kts | 159° |
| 2026-04-14 13:57 | 50.03591 | 8.54321 | 358 ft | 4 kts | 159° |
| 2026-04-14 13:57 | 50.03552 | 8.54344 | 358 ft | 8 kts | 159° |
| 2026-04-14 13:58 | 50.03501 | 8.54375 | 356 ft | 7 kts | 144° |
| 2026-04-14 13:58 | 50.03501 | 8.54458 | 356 ft | 15 kts | 76° |
| 2026-04-14 13:58 | 50.03613 | 8.54932 | 358 ft | 79 kts | 69° |
| 2026-04-14 13:58 | 50.03876 | 8.56033 | 364 ft | 135 kts | 70° |
| 2026-04-14 13:59 | 50.04257 | 8.57648 | 395 ft | 178 kts | 68° |
| 2026-04-14 13:59 | 50.04668 | 8.59499 | 956 ft | 180 kts | 69° |
| 2026-04-14 13:59 | 50.05079 | 8.61381 | 1469 ft | 190 kts | 66° |
| 2026-04-14 13:59 | 50.05909 | 8.63009 | 1843 ft | 200 kts | 30° |
| 2026-04-14 14:00 | 50.07263 | 8.63588 | 2330 ft | 208 kts | 1° |
| 2026-04-14 14:00 | 50.08681 | 8.63456 | 3042 ft | 206 kts | 358° |
| 2026-04-14 14:00 | 50.10109 | 8.63364 | 3726 ft | 207 kts | 359° |
| 2026-04-14 14:00 | 50.11581 | 8.63310 | 4256 ft | 218 kts | 359° |
| 2026-04-14 14:01 | 50.13182 | 8.63259 | 4590 ft | 242 kts | 359° |
| 2026-04-14 14:01 | 50.14913 | 8.63153 | 5213 ft | 252 kts | 358° |
| 2026-04-14 14:01 | 50.16664 | 8.63000 | 6139 ft | 253 kts | 357° |
| 2026-04-14 14:01 | 50.18438 | 8.62831 | 6928 ft | 258 kts | 357° |
| 2026-04-14 14:02 | 50.20253 | 8.62623 | 7649 ft | 266 kts | 351° |
| 2026-04-14 14:02 | 50.21952 | 8.61460 | 8357 ft | 274 kts | 319° |
| 2026-04-14 14:02 | 50.23003 | 8.58969 | 9088 ft | 282 kts | 285° |
| 2026-04-14 14:02 | 50.23296 | 8.55959 | 10134 ft | 277 kts | 275° |
| 2026-04-14 14:03 | 50.23572 | 8.52921 | 10784 ft | 290 kts | 279° |
| 2026-04-14 14:03 | 50.24007 | 8.49767 | 11118 ft | 311 kts | 283° |
| 2026-04-14 14:03 | 50.24540 | 8.46366 | 11389 ft | 334 kts | 282° |
| 2026-04-14 14:03 | 50.25081 | 8.42729 | 11806 ft | 348 kts | 282° |
| 2026-04-14 14:04 | 50.25616 | 8.39012 | 12619 ft | 353 kts | 282° |
| 2026-04-14 14:04 | 50.26152 | 8.35220 | 13370 ft | 360 kts | 282° |
| 2026-04-14 14:04 | 50.26708 | 8.31360 | 14029 ft | 369 kts | 282° |
| 2026-04-14 14:04 | 50.27288 | 8.27390 | 14641 ft | 376 kts | 283° |
| 2026-04-14 14:05 | 50.27869 | 8.23382 | 15298 ft | 383 kts | 283° |
| 2026-04-14 14:05 | 50.28549 | 8.19392 | 16123 ft | 379 kts | 292° |
| 2026-04-14 14:05 | 50.29897 | 8.15869 | 17058 ft | 378 kts | 308° |
| 2026-04-14 14:05 | 50.31582 | 8.12663 | 17738 ft | 384 kts | 310° |
| 2026-04-14 14:06 | 50.33315 | 8.09429 | 18330 ft | 392 kts | 310° |
| 2026-04-14 14:06 | 50.35013 | 8.06032 | 18865 ft | 398 kts | 307° |
| 2026-04-14 14:06 | 50.36658 | 8.02528 | 19513 ft | 401 kts | 306° |
| 2026-04-14 14:06 | 50.38318 | 7.98924 | 20195 ft | 403 kts | 306° |
| 2026-04-14 14:07 | 50.39936 | 7.95389 | 20854 ft | 406 kts | 306° |
| 2026-04-14 14:07 | 50.41562 | 7.91826 | 21489 ft | 409 kts | 306° |
| 2026-04-14 14:07 | 50.43226 | 7.88178 | 22114 ft | 412 kts | 305° |
| 2026-04-14 14:07 | 50.44900 | 7.84500 | 22748 ft | 415 kts | 306° |
| 2026-04-14 14:08 | 50.46588 | 7.80793 | 23369 ft | 418 kts | 306° |
| 2026-04-14 14:08 | 50.48307 | 7.77080 | 23949 ft | 422 kts | 307° |
| 2026-04-14 14:08 | 50.50076 | 7.73388 | 24458 ft | 425 kts | 307° |
| 2026-04-14 14:08 | 50.51871 | 7.69668 | 24979 ft | 427 kts | 307° |
| 2026-04-14 14:09 | 50.53670 | 7.65930 | 25488 ft | 430 kts | 307° |
| 2026-04-14 14:09 | 50.55475 | 7.62160 | 26009 ft | 433 kts | 307° |
| 2026-04-14 14:09 | 50.57264 | 7.58410 | 26487 ft | 435 kts | 307° |
| 2026-04-14 14:09 | 50.59088 | 7.54578 | 26992 ft | 438 kts | 307° |
| 2026-04-14 14:10 | 50.60922 | 7.50720 | 27468 ft | 441 kts | 307° |
| 2026-04-14 14:10 | 50.62763 | 7.46839 | 27933 ft | 444 kts | 307° |
| 2026-04-14 14:10 | 50.64609 | 7.42933 | 28489 ft | 445 kts | 308° |
| 2026-04-14 14:10 | 50.66463 | 7.39016 | 29071 ft | 445 kts | 308° |
| 2026-04-14 14:11 | 50.68314 | 7.35103 | 29727 ft | 443 kts | 308° |
| 2026-04-14 14:11 | 50.70148 | 7.31217 | 30444 ft | 440 kts | 308° |
| 2026-04-14 14:11 | 50.71976 | 7.27349 | 31040 ft | 438 kts | 308° |
| 2026-04-14 14:11 | 50.73773 | 7.23567 | 31601 ft | 436 kts | 308° |
| 2026-04-14 14:12 | 50.75590 | 7.19743 | 32155 ft | 434 kts | 308° |
| 2026-04-14 14:12 | 50.77396 | 7.15939 | 32690 ft | 432 kts | 308° |
| 2026-04-14 14:12 | 50.79198 | 7.12134 | 33250 ft | 431 kts | 308° |
| 2026-04-14 14:12 | 50.80989 | 7.08345 | 33791 ft | 429 kts | 308° |
| 2026-04-14 14:13 | 50.82770 | 7.04568 | 34299 ft | 427 kts | 308° |
| 2026-04-14 14:13 | 50.84527 | 7.00790 | 34755 ft | 426 kts | 307° |
| 2026-04-14 14:13 | 50.86171 | 6.96900 | 35112 ft | 427 kts | 304° |
| 2026-04-14 14:13 | 50.87701 | 6.92838 | 35364 ft | 431 kts | 301° |
| 2026-04-14 14:14 | 50.89096 | 6.88686 | 35583 ft | 434 kts | 299° |
| 2026-04-14 14:14 | 50.90485 | 6.84386 | 35857 ft | 437 kts | 299° |
| 2026-04-14 14:14 | 50.91867 | 6.80074 | 36123 ft | 439 kts | 298° |
| 2026-04-14 14:15 | 50.94636 | 6.71398 | 36210 ft | 441 kts | 298° |
| 2026-04-14 14:15 | 50.97402 | 6.62711 | 36216 ft | 441 kts | 298° |
| 2026-04-14 14:16 | 51.00140 | 6.54080 | 36209 ft | 440 kts | 298° |
| 2026-04-14 14:16 | 51.02890 | 6.45400 | 36213 ft | 439 kts | 298° |
| 2026-04-14 14:17 | 51.07005 | 6.32355 | 36215 ft | 439 kts | 298° |
| 2026-04-14 14:17 | 51.09734 | 6.23659 | 36215 ft | 439 kts | 298° |
| 2026-04-14 14:18 | 51.12386 | 6.14946 | 36206 ft | 440 kts | 296° |
| 2026-04-14 14:18 | 51.14551 | 6.05839 | 36212 ft | 440 kts | 290° |
| 2026-04-14 14:19 | 51.16193 | 5.96435 | 36213 ft | 441 kts | 288° |
| 2026-04-14 14:19 | 51.17768 | 5.86987 | 36211 ft | 440 kts | 289° |
| 2026-04-14 14:20 | 51.19765 | 5.77869 | 36219 ft | 437 kts | 295° |
| 2026-04-14 14:20 | 51.22091 | 5.68921 | 36197 ft | 436 kts | 292° |
| 2026-04-14 14:21 | 51.23832 | 5.59617 | 36205 ft | 437 kts | 288° |
| 2026-04-14 14:21 | 51.25443 | 5.50334 | 36207 ft | 436 kts | 288° |
| 2026-04-14 14:22 | 51.27078 | 5.40985 | 36208 ft | 436 kts | 289° |
| 2026-04-14 14:22 | 51.28715 | 5.31651 | 36206 ft | 436 kts | 289° |
| 2026-04-14 14:23 | 51.30353 | 5.22299 | 36200 ft | 436 kts | 288° |
| 2026-04-14 14:23 | 51.31978 | 5.12975 | 36202 ft | 435 kts | 288° |
| 2026-04-14 14:24 | 51.35262 | 4.94000 | 36210 ft | 435 kts | 288° |
| 2026-04-14 14:25 | 51.36865 | 4.84661 | 36213 ft | 435 kts | 288° |
| 2026-04-14 14:25 | 51.38462 | 4.75310 | 36200 ft | 434 kts | 288° |
| 2026-04-14 14:26 | 51.40044 | 4.65994 | 36194 ft | 433 kts | 288° |
| 2026-04-14 14:26 | 51.41609 | 4.56739 | 36190 ft | 433 kts | 288° |
| 2026-04-14 14:27 | 51.43175 | 4.47420 | 36190 ft | 433 kts | 288° |
| 2026-04-14 14:27 | 51.44734 | 4.38093 | 36185 ft | 433 kts | 288° |
| 2026-04-14 14:28 | 51.46285 | 4.28762 | 36189 ft | 433 kts | 288° |
| 2026-04-14 14:28 | 51.47820 | 4.19479 | 36195 ft | 433 kts | 288° |
| 2026-04-14 14:29 | 51.49356 | 4.10139 | 36190 ft | 433 kts | 288° |
| 2026-04-14 14:29 | 51.50887 | 4.00783 | 36207 ft | 432 kts | 288° |
| 2026-04-14 14:30 | 51.52407 | 3.91441 | 36193 ft | 432 kts | 287° |
| 2026-04-14 14:30 | 51.53918 | 3.82084 | 36185 ft | 431 kts | 288° |
| 2026-04-14 14:31 | 51.55401 | 3.72846 | 36194 ft | 429 kts | 288° |
| 2026-04-14 14:31 | 51.56888 | 3.63561 | 36207 ft | 429 kts | 288° |
| 2026-04-14 14:32 | 51.58367 | 3.54266 | 36205 ft | 428 kts | 288° |
| 2026-04-14 14:32 | 51.59840 | 3.44963 | 36207 ft | 428 kts | 288° |
| 2026-04-14 14:33 | 51.61292 | 3.35721 | 36193 ft | 428 kts | 288° |
| 2026-04-14 14:33 | 51.62729 | 3.26492 | 36207 ft | 423 kts | 288° |
| 2026-04-14 14:34 | 51.63953 | 3.17210 | 36072 ft | 425 kts | 282° |
| 2026-04-14 14:34 | 51.64311 | 3.12487 | 35813 ft | 424 kts | 282° |
| 2026-04-14 14:34 | 51.64646 | 3.07754 | 35566 ft | 424 kts | 282° |
| 2026-04-14 14:35 | 51.64985 | 3.03008 | 35310 ft | 425 kts | 282° |
| 2026-04-14 14:35 | 51.65326 | 2.98287 | 34936 ft | 425 kts | 282° |
| 2026-04-14 14:35 | 51.65671 | 2.93542 | 34391 ft | 426 kts | 282° |
| 2026-04-14 14:35 | 51.66013 | 2.88863 | 33792 ft | 425 kts | 282° |
| 2026-04-14 14:36 | 51.66354 | 2.84141 | 33252 ft | 423 kts | 282° |
| 2026-04-14 14:36 | 51.66696 | 2.79463 | 32910 ft | 416 kts | 282° |
| 2026-04-14 14:36 | 51.67032 | 2.74859 | 32618 ft | 411 kts | 282° |
| 2026-04-14 14:36 | 51.67366 | 2.70295 | 32309 ft | 409 kts | 282° |
| 2026-04-14 14:37 | 51.67696 | 2.65751 | 32011 ft | 407 kts | 282° |
| 2026-04-14 14:37 | 51.68022 | 2.61234 | 31695 ft | 405 kts | 282° |
| 2026-04-14 14:37 | 51.68345 | 2.56727 | 31393 ft | 403 kts | 282° |
| 2026-04-14 14:37 | 51.68663 | 2.52261 | 31079 ft | 400 kts | 282° |
| 2026-04-14 14:38 | 51.68974 | 2.47859 | 30772 ft | 398 kts | 281° |
| 2026-04-14 14:38 | 51.69286 | 2.43436 | 30466 ft | 396 kts | 281° |
| 2026-04-14 14:38 | 51.69593 | 2.39035 | 30122 ft | 393 kts | 281° |
| 2026-04-14 14:38 | 51.69898 | 2.34652 | 29793 ft | 391 kts | 281° |
| 2026-04-14 14:39 | 51.70199 | 2.30290 | 29476 ft | 390 kts | 281° |
| 2026-04-14 14:39 | 51.70496 | 2.25962 | 29121 ft | 388 kts | 281° |
| 2026-04-14 14:39 | 51.70791 | 2.21646 | 28769 ft | 386 kts | 281° |
| 2026-04-14 14:39 | 51.71082 | 2.17353 | 28395 ft | 383 kts | 281° |
| 2026-04-14 14:40 | 51.71365 | 2.13147 | 28040 ft | 381 kts | 280° |
| 2026-04-14 14:40 | 51.71650 | 2.08898 | 27670 ft | 379 kts | 280° |
| 2026-04-14 14:40 | 51.71931 | 2.04679 | 27315 ft | 376 kts | 280° |
| 2026-04-14 14:40 | 51.72209 | 2.00491 | 26962 ft | 374 kts | 280° |
| 2026-04-14 14:41 | 51.72483 | 1.96338 | 26612 ft | 372 kts | 280° |
| 2026-04-14 14:41 | 51.72756 | 1.92187 | 26247 ft | 370 kts | 279° |
| 2026-04-14 14:41 | 51.73025 | 1.88081 | 25906 ft | 367 kts | 279° |
| 2026-04-14 14:41 | 51.73291 | 1.83991 | 25563 ft | 365 kts | 279° |
| 2026-04-14 14:42 | 51.73550 | 1.79960 | 25431 ft | 354 kts | 279° |
| 2026-04-14 14:42 | 51.73796 | 1.76079 | 25396 ft | 340 kts | 279° |
| 2026-04-14 14:42 | 51.74031 | 1.72349 | 25337 ft | 328 kts | 279° |
| 2026-04-14 14:42 | 51.74258 | 1.68777 | 25280 ft | 327 kts | 279° |
| 2026-04-14 14:43 | 51.74503 | 1.64993 | 25196 ft | 350 kts | 278° |
| 2026-04-14 14:43 | 51.74608 | 1.60936 | 25169 ft | 369 kts | 273° |
| 2026-04-14 14:43 | 51.74467 | 1.56745 | 25084 ft | 375 kts | 269° |
| 2026-04-14 14:43 | 51.74210 | 1.52569 | 24839 ft | 371 kts | 268° |
| 2026-04-14 14:44 | 51.73940 | 1.48426 | 24333 ft | 371 kts | 268° |
| 2026-04-14 14:44 | 51.73669 | 1.44287 | 23872 ft | 370 kts | 267° |
| 2026-04-14 14:44 | 51.73399 | 1.40169 | 23151 ft | 367 kts | 267° |
| 2026-04-14 14:44 | 51.73135 | 1.36128 | 22208 ft | 366 kts | 266° |
| 2026-04-14 14:45 | 51.72868 | 1.32020 | 20996 ft | 374 kts | 266° |
| 2026-04-14 14:45 | 51.72592 | 1.27803 | 20339 ft | 377 kts | 265° |
| 2026-04-14 14:45 | 51.72310 | 1.23574 | 19913 ft | 380 kts | 265° |
| 2026-04-14 14:45 | 51.72026 | 1.19327 | 19397 ft | 380 kts | 265° |
| 2026-04-14 14:46 | 51.71742 | 1.15094 | 18843 ft | 380 kts | 264° |
| 2026-04-14 14:46 | 51.71457 | 1.10862 | 18419 ft | 377 kts | 264° |
| 2026-04-14 14:46 | 51.71172 | 1.06667 | 17923 ft | 374 kts | 264° |
| 2026-04-14 14:46 | 51.70887 | 1.02510 | 17458 ft | 371 kts | 264° |
| 2026-04-14 14:47 | 51.70605 | 0.98397 | 16980 ft | 368 kts | 264° |
| 2026-04-14 14:47 | 51.70330 | 0.94371 | 16471 ft | 365 kts | 263° |
| 2026-04-14 14:47 | 51.70051 | 0.90316 | 15963 ft | 361 kts | 263° |
| 2026-04-14 14:47 | 51.69773 | 0.86313 | 15496 ft | 357 kts | 263° |
| 2026-04-14 14:48 | 51.69495 | 0.82346 | 15007 ft | 354 kts | 263° |
| 2026-04-14 14:48 | 51.69219 | 0.78410 | 14537 ft | 351 kts | 262° |
| 2026-04-14 14:48 | 51.68943 | 0.74525 | 14181 ft | 346 kts | 262° |
| 2026-04-14 14:48 | 51.68671 | 0.70707 | 13723 ft | 342 kts | 262° |
| 2026-04-14 14:49 | 51.68398 | 0.66884 | 12717 ft | 343 kts | 262° |
| 2026-04-14 14:49 | 51.68130 | 0.63123 | 12141 ft | 329 kts | 262° |
| 2026-04-14 14:49 | 51.67875 | 0.59562 | 11774 ft | 311 kts | 262° |
| 2026-04-14 14:49 | 51.67632 | 0.56189 | 11451 ft | 294 kts | 261° |
| 2026-04-14 14:50 | 51.67400 | 0.52999 | 11111 ft | 280 kts | 261° |
| 2026-04-14 14:50 | 51.67177 | 0.49918 | 10572 ft | 275 kts | 261° |
| 2026-04-14 14:50 | 51.66953 | 0.46867 | 9979 ft | 274 kts | 261° |
| 2026-04-14 14:50 | 51.66735 | 0.43862 | 9325 ft | 272 kts | 261° |
| 2026-04-14 14:51 | 51.66514 | 0.40852 | 8730 ft | 268 kts | 260° |
| 2026-04-14 14:51 | 51.66294 | 0.37893 | 8158 ft | 264 kts | 261° |
| 2026-04-14 14:51 | 51.66076 | 0.34963 | 7592 ft | 261 kts | 260° |
| 2026-04-14 14:51 | 51.65863 | 0.32088 | 7196 ft | 257 kts | 260° |
| 2026-04-14 14:52 | 51.65492 | 0.29266 | 7167 ft | 258 kts | 243° |
| 2026-04-14 14:52 | 51.64588 | 0.26781 | 7143 ft | 256 kts | 237° |
| 2026-04-14 14:52 | 51.63642 | 0.24422 | 7127 ft | 244 kts | 236° |
| 2026-04-14 14:52 | 51.62755 | 0.22228 | 7118 ft | 229 kts | 236° |
| 2026-04-14 14:53 | 51.61892 | 0.20102 | 6944 ft | 222 kts | 236° |
| 2026-04-14 14:53 | 51.61049 | 0.18038 | 6616 ft | 223 kts | 236° |
| 2026-04-14 14:53 | 51.60200 | 0.15956 | 6328 ft | 221 kts | 236° |
| 2026-04-14 14:53 | 51.59359 | 0.13885 | 5993 ft | 221 kts | 236° |
| 2026-04-14 14:54 | 51.58522 | 0.11815 | 5697 ft | 220 kts | 236° |
| 2026-04-14 14:54 | 51.57691 | 0.09750 | 5406 ft | 219 kts | 236° |
| 2026-04-14 14:54 | 51.56873 | 0.07689 | 5120 ft | 218 kts | 236° |
| 2026-04-14 14:54 | 51.56068 | 0.05642 | 4850 ft | 215 kts | 236° |
| 2026-04-14 14:55 | 51.55278 | 0.03602 | 4530 ft | 215 kts | 236° |
| 2026-04-14 14:55 | 51.54504 | 0.01582 | 4166 ft | 214 kts | 236° |
| 2026-04-14 14:55 | 51.53728 | -0.00475 | 3851 ft | 212 kts | 236° |
| 2026-04-14 14:55 | 51.52979 | -0.02493 | 3490 ft | 214 kts | 236° |
| 2026-04-14 14:56 | 51.51475 | -0.06618 | 2948 ft | 211 kts | 236° |
| 2026-04-14 14:56 | 51.50764 | -0.08585 | 2962 ft | 196 kts | 236° |
| 2026-04-14 14:56 | 51.50097 | -0.10466 | 2985 ft | 193 kts | 236° |
| 2026-04-14 14:57 | 51.49434 | -0.12344 | 2953 ft | 194 kts | 236° |
| 2026-04-14 14:57 | 51.48762 | -0.14226 | 2927 ft | 193 kts | 236° |
| 2026-04-14 14:57 | 51.48208 | -0.16154 | 2919 ft | 186 kts | 246° |
| 2026-04-14 14:57 | 51.47937 | -0.18135 | 2890 ft | 180 kts | 257° |
| 2026-04-14 14:58 | 51.47852 | -0.20128 | 2860 ft | 183 kts | 262° |
| 2026-04-14 14:58 | 51.47844 | -0.22183 | 2756 ft | 183 kts | 264° |
| 2026-04-14 14:58 | 51.47858 | -0.24235 | 2551 ft | 184 kts | 264° |
| 2026-04-14 14:58 | 51.47867 | -0.26296 | 2219 ft | 186 kts | 263° |
| 2026-04-14 14:59 | 51.47863 | -0.28390 | 1917 ft | 186 kts | 263° |
| 2026-04-14 14:59 | 51.47855 | -0.30390 | 1724 ft | 171 kts | 261° |
| 2026-04-14 14:59 | 51.47821 | -0.32251 | 1457 ft | 162 kts | 261° |
| 2026-04-14 14:59 | 51.47796 | -0.34037 | 1233 ft | 159 kts | 263° |
| 2026-04-14 15:00 | 51.47789 | -0.35809 | 1017 ft | 158 kts | 262° |
| 2026-04-14 15:00 | 51.47782 | -0.37575 | 816 ft | 158 kts | 263° |
| 2026-04-14 15:00 | 51.47790 | -0.39341 | 622 ft | 158 kts | 264° |
| 2026-04-14 15:00 | 51.47771 | -0.41074 | 448 ft | 158 kts | 264° |
| 2026-04-14 15:01 | 51.47771 | -0.42835 | 218 ft | 156 kts | 264° |
| 2026-04-14 15:01 | 51.47765 | -0.44535 | 97 ft | 141 kts | 268° |
| 2026-04-14 15:01 | 51.47759 | -0.45747 | 95 ft | 76 kts | 269° |
| 2026-04-14 15:01 | 51.47759 | -0.46304 | 98 ft | 39 kts | 269° |
| 2026-04-14 15:02 | 51.47709 | -0.46693 | 101 ft | 28 kts | 245° |
| 2026-04-14 15:02 | 51.47667 | -0.46821 | 98 ft | 11 kts | 237° |
| 2026-04-14 15:02 | 51.47601 | -0.46895 | 97 ft | 10 kts | 205° |
| 2026-04-14 15:02 | 51.47531 | -0.46930 | 96 ft | 9 kts | 173° |
| 2026-04-14 15:03 | 51.47460 | -0.46899 | 97 ft | 11 kts | 166° |
| 2026-04-14 15:03 | 51.47407 | -0.46879 | 98 ft | 7 kts | 166° |
| 2026-04-14 15:03 | 51.47346 | -0.46865 | 96 ft | 11 kts | 180° |
| 2026-04-14 15:03 | 51.47262 | -0.46866 | 94 ft | 13 kts | 177° |
| 2026-04-14 15:04 | 51.47197 | -0.46863 | 96 ft | 15 kts | 179° |
| 2026-04-14 15:04 | 51.47087 | -0.46864 | 94 ft | 17 kts | 180° |
| 2026-04-14 15:04 | 51.46955 | -0.46864 | 94 ft | 20 kts | 179° |
| 2026-04-14 15:04 | 51.46821 | -0.46861 | 97 ft | 10 kts | 180° |
| 2026-04-14 15:05 | 51.46768 | -0.46858 | 97 ft | 5 kts | 158° |
| 2026-04-14 15:05 | 51.46749 | -0.46804 | 97 ft | 7 kts | 97° |
| 2026-04-14 15:05 | 51.46748 | -0.46705 | 98 ft | 11 kts | 88° |
| 2026-04-14 15:05 | 51.46749 | -0.46569 | 98 ft | 13 kts | 90° |
| 2026-04-14 15:06 | 51.46748 | -0.46427 | 98 ft | 13 kts | 91° |
| 2026-04-14 15:06 | 51.46747 | -0.46288 | 98 ft | 12 kts | 90° |
| 2026-04-14 15:06 | 51.46747 | -0.46151 | 98 ft | 12 kts | 89° |
| 2026-04-14 15:06 | 51.46748 | -0.46013 | 98 ft | 12 kts | 89° |
| 2026-04-14 15:07 | 51.46748 | -0.45871 | 98 ft | 13 kts | 90° |
| 2026-04-14 15:07 | 51.46749 | -0.45702 | 97 ft | 18 kts | 89° |
| 2026-04-14 15:07 | 51.46749 | -0.45492 | 94 ft | 19 kts | 90° |
| 2026-04-14 15:07 | 51.46750 | -0.45277 | 95 ft | 19 kts | 89° |
| 2026-04-14 15:08 | 51.46751 | -0.45071 | 95 ft | 16 kts | 90° |
| 2026-04-14 15:08 | 51.46751 | -0.44924 | 95 ft | 7 kts | 90° |
| 2026-04-14 15:08 | 51.46762 | -0.44880 | 98 ft | 3 kts | 21° |
| 2026-04-14 15:08 | 51.46791 | -0.44880 | 96 ft | 5 kts | 359° |
| 2026-04-14 15:09 | 51.46821 | -0.44881 | 95 ft | 2 kts | 359° |
| 2026-04-14 15:09 | 51.46834 | -0.44881 | 95 ft | 1 kts | 359° |
| 2026-04-14 15:09 | 51.46836 | -0.44881 | 95 ft | 0 kts | 359° |